This is the latest recevied weather packets stored in our database for station/object S55YIZ-7. If no packets are shown the sender has not sent any weather packets the latest 10 day(s).
| Time | Temp. | Humidity | Pressure | Rain* | Wind** | Luminosity | Snow |
|---|---|---|---|---|---|---|---|
| 1777496958 | 12.78° C | 73% | 1019.9 hPa | - | - | - | - |
| 1777496106 | 12.78° C | 74% | 1020 hPa | - | - | - | - |
| 1777496058 | 12.78° C | 74% | 1020 hPa | - | - | - | - |
| 1777495818 | 12.78° C | 85% | 1020.2 hPa | - | - | - | - |
| 1777495577 | 12.78° C | 85% | 1020.2 hPa | - | - | - | - |
| 1777495196 | 12.78° C | 85% | 1020.2 hPa | - | - | - | - |
| 1777495158 | 12.78° C | 85% | 1020.2 hPa | - | - | - | - |
| 1777494258 | 12.78° C | 93% | 1019.9 hPa | - | - | - | - |
| 1777493358 | 12.78° C | 97% | 1019.5 hPa | - | - | - | - |
| 1777492458 | 12.78° C | 100% | 1019.7 hPa | - | - | - | - |
| 1777491558 | 12.22° C | 100% | 1019.3 hPa | - | - | - | - |
| 1777490658 | 12.78° C | 100% | 1019.2 hPa | - | - | - | - |
| 1777489757 | 13.33° C | 100% | 1019 hPa | - | - | - | - |
| 1777488857 | 13.33° C | 96% | 1018.6 hPa | - | - | - | - |
| 1777487957 | 13.33° C | 100% | 1018.7 hPa | - | - | - | - |
| 1777487057 | 12.78° C | 100% | 1018.2 hPa | - | - | - | - |
| 1777486157 | 12.22° C | 100% | 1018.4 hPa | - | - | - | - |
| 1777485255 | 12.22° C | 100% | 1017.9 hPa | - | - | - | - |
| 1777484355 | 12.22° C | 100% | 1018.2 hPa | - | - | - | - |
| 1777483468 | 11.67° C | 100% | 1018.5 hPa | - | - | - | - |
| 1777482568 | 11.67° C | 100% | 1018.6 hPa | - | - | - | - |
| 1777481668 | 11.67° C | 100% | 1018.3 hPa | - | - | - | - |
| 1777480768 | 12.22° C | 100% | 1018.1 hPa | - | - | - | - |
| 1777479867 | 12.78° C | 92% | 1018.1 hPa | - | - | - | - |
| 1777478967 | 14.44° C | 70% | 1018 hPa | - | - | - | - |
* Rain since midnight (hover to see other rain measurements)
** Current wind speed in m/s (hover to see current wind gust speed)